Time;durP1;ratioP1;P1;durP2;ratioP2;P2;SDS_P1;SDS_P2;PMS_P1;PMS_P2;Temp;Humidity;BMP_temperature;BMP_pressure;BME280_temperature;BME280_humidity;BME280_pressure;Samples;Min_cycle;Max_cycle;Signal;HPM_P1;HPM_P2
2022/09/27 00:00:34;;;;;;;8.87;1.20;;;12.70;99.90;;;;;;5071753;28;20232;-58
2022/09/27 00:03:01;;;;;;;8.40;1.43;;;12.70;99.90;;;;;;5071898;28;20232;-58
2022/09/27 00:05:27;;;;;;;10.97;1.50;;;12.80;99.90;;;;;;5071761;28;20271;-58
2022/09/27 00:07:53;;;;;;;7.80;1.17;;;;;;;;;;5072011;28;20193;-58
2022/09/27 00:10:19;;;;;;;9.00;1.50;;;12.70;99.90;;;;;;5071625;28;20184;-58
2022/09/27 00:12:44;;;;;;;10.60;1.57;;;12.70;99.90;;;;;;5071986;28;20169;-58
2022/09/27 00:15:11;;;;;;;5.93;1.40;;;12.70;99.90;;;;;;5071669;28;20168;-58
2022/09/27 00:17:37;;;;;;;8.97;1.70;;;12.70;99.90;;;;;;5071479;28;20179;-58
2022/09/27 00:20:05;;;;;;;10.00;2.20;;;12.70;99.90;;;;;;5071497;28;20285;-58
2022/09/27 00:22:31;;;;;;;5.07;1.10;;;12.60;99.90;;;;;;5071514;28;20809;-58
2022/09/27 00:24:57;;;;;;;6.63;1.43;;;12.70;99.90;;;;;;5071410;28;20177;-58
2022/09/27 00:27:24;;;;;;;10.77;1.40;;;12.70;99.90;;;;;;5071522;28;20156;-58
2022/09/27 00:29:50;;;;;;;10.70;1.50;;;12.70;99.90;;;;;;5071520;28;20255;-58
2022/09/27 00:32:15;;;;;;;6.43;1.40;;;12.70;99.90;;;;;;5071390;28;20215;-58
2022/09/27 00:34:41;;;;;;;8.53;1.23;;;12.70;99.90;;;;;;5069894;28;20639;-58
2022/09/27 00:37:07;;;;;;;10.47;1.50;;;12.70;99.90;;;;;;5070982;28;20243;-58
2022/09/27 00:39:33;;;;;;;6.63;1.40;;;12.80;99.90;;;;;;5071126;28;20211;-57
2022/09/27 00:41:59;;;;;;;8.97;1.80;;;;;;;;;;5070864;28;20169;-58
2022/09/27 00:44:28;;;;;;;10.73;1.27;;;12.60;99.90;;;;;;5069650;28;20514;-58
2022/09/27 00:47:05;;;;;;;8.60;1.40;;;12.60;99.90;;;;;;5071099;28;20184;-58
2022/09/27 00:49:39;;;;;;;10.77;1.67;;;12.80;99.90;;;;;;5070915;28;20204;-58
2022/09/27 00:52:10;;;;;;;12.53;1.73;;;12.50;99.90;;;;;;5071208;28;20251;-58
2022/09/27 00:54:41;;;;;;;8.80;1.87;;;12.50;99.90;;;;;;5070834;28;20183;-58
2022/09/27 00:57:07;;;;;;;6.23;1.23;;;12.80;99.90;;;;;;5070900;28;20255;-58
2022/09/27 00:59:40;;;;;;;6.37;1.33;;;12.50;99.90;;;;;;5074585;28;20212;-58
2022/09/27 01:02:07;;;;;;;8.43;1.30;;;12.70;99.90;;;;;;5090339;28;20568;-58
2022/09/27 01:04:33;;;;;;;8.07;1.80;;;12.50;99.90;;;;;;5091087;28;20202;-58
2022/09/27 01:06:59;;;;;;;9.97;1.30;;;12.50;99.90;;;;;;5090915;28;20246;-58
2022/09/27 01:09:25;;;;;;;8.90;1.50;;;12.50;99.90;;;;;;5090820;28;20164;-58
2022/09/27 01:12:17;;;;;;;10.63;1.60;;;12.50;99.90;;;;;;5090801;28;20666;-58
2022/09/27 01:15:01;;;;;;;10.63;1.67;;;12.60;99.90;;;;;;5090809;28;20175;-58
2022/09/27 01:18:20;;;;;;;10.40;1.40;;;12.60;99.90;;;;;;5090776;28;20789;-58
2022/09/27 01:21:07;;;;;;;11.97;1.43;;;12.60;99.90;;;;;;5068286;28;20208;-58
2022/09/27 01:23:44;;;;;;;13.33;1.83;;;12.60;99.90;;;;;;5068061;28;20398;-58
2022/09/27 01:26:31;;;;;;;9.20;1.50;;;12.60;99.90;;;;;;5083386;28;20262;-58
2022/09/27 01:29:02;;;;;;;15.87;1.97;;;12.60;99.90;;;;;;5090672;28;20176;-58
2022/09/27 01:31:50;;;;;;;9.83;1.80;;;12.60;99.90;;;;;;5090679;28;20168;-58
2022/09/27 01:34:25;;;;;;;11.07;1.90;;;12.50;99.90;;;;;;5090583;28;20164;-58
2022/09/27 01:37:12;;;;;;;10.13;1.93;;;12.40;99.90;;;;;;5090646;28;20511;-58
2022/09/27 01:40:00;;;;;;;11.53;1.50;;;12.40;99.90;;;;;;5090453;28;20547;-58
2022/09/27 01:42:44;;;;;;;12.77;1.97;;;12.30;99.90;;;;;;5090720;28;20187;-58
2022/09/27 01:45:22;;;;;;;9.97;1.50;;;12.30;99.90;;;;;;5090554;28;20198;-58
2022/09/27 01:47:57;;;;;;;13.33;1.70;;;12.30;99.90;;;;;;5090509;28;20172;-58
2022/09/27 01:50:35;;;;;;;12.77;1.83;;;12.30;99.90;;;;;;5090526;28;20626;-62
2022/09/27 01:53:23;;;;;;;9.10;1.83;;;12.30;99.90;;;;;;5090525;28;20200;-58
2022/09/27 01:55:52;;;;;;;8.10;1.43;;;12.30;99.90;;;;;;5090517;28;20169;-58
2022/09/27 01:58:31;;;;;;;12.73;1.83;;;12.30;99.90;;;;;;5090489;28;20182;-58
2022/09/27 02:00:59;;;;;;;14.80;1.70;;;12.30;99.90;;;;;;5090416;28;20188;-58
2022/09/27 02:03:30;;;;;;;15.00;2.20;;;12.30;99.90;;;;;;5090463;28;20175;-58
2022/09/27 02:06:04;;;;;;;11.70;1.63;;;12.20;99.90;;;;;;5090654;28;20231;-58
2022/09/27 02:08:42;;;;;;;11.70;1.73;;;12.30;99.90;;;;;;5090353;28;20186;-58
2022/09/27 02:11:11;;;;;;;9.20;2.20;;;12.30;99.90;;;;;;5090322;28;20170;-58
2022/09/27 02:13:39;;;;;;;11.67;1.60;;;12.30;99.90;;;;;;5090322;28;20234;-58
2022/09/27 02:16:21;;;;;;;10.23;1.87;;;12.30;99.90;;;;;;5093811;28;20213;-58
2022/09/27 02:18:47;;;;;;;9.93;1.70;;;12.40;99.90;;;;;;5093749;28;20203;-58
2022/09/27 02:21:15;;;;;;;14.20;1.63;;;12.00;99.90;;;;;;5093795;28;20264;-58
2022/09/27 02:23:46;;;;;;;9.50;1.80;;;12.40;99.90;;;;;;5093870;28;20203;-60
2022/09/27 02:26:29;;;;;;;15.43;1.93;;;12.30;99.90;;;;;;5093652;28;20263;-58
2022/09/27 02:29:10;;;;;;;6.90;1.77;;;12.30;99.90;;;;;;5093828;28;20332;-58
2022/09/27 02:31:36;;;;;;;8.70;1.80;;;12.30;99.90;;;;;;5109187;28;20550;-58
2022/09/27 02:34:14;;;;;;;12.53;2.03;;;12.30;99.90;;;;;;5093577;28;20172;-58
2022/09/27 02:36:40;;;;;;;16.90;2.03;;;12.30;99.90;;;;;;5093455;28;20245;-59
2022/09/27 02:39:06;;;;;;;11.30;1.63;;;12.20;99.90;;;;;;5093120;28;20705;-58
2022/09/27 02:41:32;;;;;;;12.53;1.97;;;12.20;99.90;;;;;;5093342;28;20197;-58
2022/09/27 02:44:04;;;;;;;9.63;1.70;;;12.20;99.90;;;;;;5093412;28;20247;-58
2022/09/27 02:46:47;;;;;;;9.67;1.90;;;12.20;99.90;;;;;;5093306;28;20175;-58
2022/09/27 02:49:40;;;;;;;12.13;1.60;;;12.10;99.90;;;;;;5093147;28;20194;-58
2022/09/27 02:52:25;;;;;;;19.27;2.50;;;12.10;99.90;;;;;;5093115;28;20186;-58
2022/09/27 02:55:13;;;;;;;17.67;2.27;;;12.20;99.90;;;;;;5093167;28;20175;-58
2022/09/27 02:58:06;;;;;;;14.50;1.73;;;12.20;99.90;;;;;;5093066;28;20180;-58
2022/09/27 03:00:45;;;;;;;19.97;2.73;;;11.80;99.90;;;;;;5093081;28;20286;-58
2022/09/27 03:03:34;;;;;;;10.90;2.37;;;12.10;99.90;;;;;;5089721;28;20179;-56
2022/09/27 03:06:06;;;;;;;14.20;2.53;;;12.10;99.90;;;;;;5085632;28;20184;-57
2022/09/27 03:08:32;;;;;;;17.33;2.67;;;12.10;99.90;;;;;;5093008;28;20174;-57
2022/09/27 03:10:57;;;;;;;17.37;2.67;;;12.10;99.90;;;;;;5092809;28;20176;-57
2022/09/27 03:13:23;;;;;;;22.90;2.50;;;12.00;99.90;;;;;;5092828;28;20194;-57
2022/09/27 03:15:49;;;;;;;15.20;2.33;;;12.00;99.90;;;;;;5092808;28;20215;-57
2022/09/27 03:18:15;;;;;;;14.40;2.10;;;12.00;99.90;;;;;;5092964;28;20183;-57
2022/09/27 03:20:40;;;;;;;21.37;2.43;;;12.10;99.90;;;;;;5092536;28;20702;-57
2022/09/27 03:23:06;;;;;;;17.73;2.60;;;12.00;99.90;;;;;;5092545;28;20175;-57
2022/09/27 03:25:31;;;;;;;12.53;2.07;;;12.00;99.90;;;;;;5092119;28;20179;-57
2022/09/27 03:27:57;;;;;;;22.63;2.53;;;12.00;99.90;;;;;;5092564;28;20200;-57
2022/09/27 03:30:22;;;;;;;15.27;2.40;;;12.00;99.90;;;;;;5092436;28;20198;-57
2022/09/27 03:32:48;;;;;;;17.23;2.40;;;12.00;99.90;;;;;;5092317;28;20634;-57
2022/09/27 03:35:14;;;;;;;17.43;3.07;;;12.00;99.90;;;;;;5092609;28;20182;-57
2022/09/27 03:37:40;;;;;;;17.33;2.23;;;12.00;99.90;;;;;;5092215;28;20331;-57
2022/09/27 03:40:06;;;;;;;14.83;2.50;;;11.80;99.90;;;;;;5092260;28;20218;-57
2022/09/27 03:42:32;;;;;;;18.87;2.30;;;12.10;99.90;;;;;;5108001;28;20180;-57
2022/09/27 03:44:58;;;;;;;18.60;2.23;;;12.10;99.90;;;;;;5091969;28;20267;-57
2022/09/27 03:47:24;;;;;;;19.33;2.60;;;12.10;99.90;;;;;;5092126;28;20202;-57
2022/09/27 03:49:49;;;;;;;18.20;2.63;;;12.10;99.90;;;;;;5107697;28;20634;-57
2022/09/27 03:52:17;;;;;;;21.27;3.10;;;12.10;99.90;;;;;;5092119;28;20194;-57
2022/09/27 03:54:43;;;;;;;20.30;2.37;;;12.10;99.90;;;;;;5092094;28;20180;-57
2022/09/27 03:57:09;;;;;;;24.63;2.67;;;12.10;99.90;;;;;;5092018;28;20178;-57
2022/09/27 03:59:34;;;;;;;19.93;2.77;;;12.10;99.90;;;;;;5091777;28;20286;-57
2022/09/27 04:02:00;;;;;;;11.13;2.37;;;12.20;99.90;;;;;;5091920;28;20171;-57
2022/09/27 04:04:26;;;;;;;19.60;2.70;;;12.10;99.90;;;;;;5107367;28;20191;-57
2022/09/27 04:06:51;;;;;;;21.37;3.40;;;12.20;99.90;;;;;;5092133;28;20255;-57
2022/09/27 04:09:17;;;;;;;22.00;2.80;;;12.10;99.90;;;;;;5091765;28;20631;-57
2022/09/27 04:11:42;;;;;;;13.70;2.50;;;12.20;99.90;;;;;;5092059;28;20175;-57
2022/09/27 04:14:09;;;;;;;17.27;2.77;;;12.20;99.90;;;;;;5091678;28;20168;-57
2022/09/27 04:16:35;;;;;;;26.27;2.67;;;12.40;99.90;;;;;;5091684;28;20176;-57
2022/09/27 04:19:01;;;;;;;16.07;2.53;;;12.30;99.90;;;;;;5091613;28;20286;-58
2022/09/27 04:21:27;;;;;;;14.83;2.67;;;12.40;99.90;;;;;;5091627;28;20217;-57
2022/09/27 04:23:52;;;;;;;19.40;2.33;;;12.30;99.90;;;;;;5091501;28;20160;-58
2022/09/27 04:26:19;;;;;;;19.30;3.00;;;12.20;99.90;;;;;;5091448;28;20179;-57
2022/09/27 04:28:45;;;;;;;23.70;3.00;;;12.30;99.90;;;;;;5091313;28;20184;-58
2022/09/27 04:31:11;;;;;;;17.97;2.77;;;12.30;99.90;;;;;;5091505;28;20252;-57
2022/09/27 04:33:37;;;;;;;17.70;2.30;;;12.40;99.90;;;;;;5091299;28;20626;-58
2022/09/27 04:38:47;;;;;;;15.10;3.40;;;12.40;99.90;;;;;;5090589;28;20695;-58
2022/09/27 04:41:14;;;;;;;14.20;2.63;;;12.50;99.90;;;;;;5091156;28;20211;-57
2022/09/27 04:43:39;;;;;;;19.13;2.90;;;12.50;99.90;;;;;;5091131;28;20164;-58
2022/09/27 04:46:05;;;;;;;17.07;2.83;;;12.50;99.90;;;;;;5091181;28;20187;-58
2022/09/27 04:48:31;;;;;;;15.43;2.73;;;12.50;99.90;;;;;;5089987;28;20172;-58
2022/09/27 04:50:58;;;;;;;18.30;2.87;;;12.50;99.90;;;;;;5091036;28;20172;-58
2022/09/27 04:53:24;;;;;;;18.63;2.33;;;12.60;99.90;;;;;;5091616;28;20300;-58
2022/09/27 04:55:53;;;;;;;13.70;2.43;;;12.40;99.90;;;;;;5091024;28;20182;-58
2022/09/27 04:58:19;;;;;;;14.43;2.30;;;12.60;99.90;;;;;;5090880;28;20167;-58
2022/09/27 05:00:46;;;;;;;20.83;2.80;;;12.50;99.90;;;;;;5090466;28;20207;-58
2022/09/27 05:03:12;;;;;;;20.50;2.27;;;12.50;99.90;;;;;;5090944;28;20211;-58
2022/09/27 05:05:38;;;;;;;15.67;2.20;;;12.50;99.90;;;;;;5090964;28;20638;-58
2022/09/27 05:08:03;;;;;;;17.77;2.63;;;12.40;99.90;;;;;;5087982;28;20172;-58
2022/09/27 05:10:29;;;;;;;10.27;2.40;;;12.40;99.90;;;;;;5079744;28;20176;-58
2022/09/27 05:12:55;;;;;;;18.43;2.73;;;12.20;99.90;;;;;;5090801;28;20172;-58
2022/09/27 05:15:20;;;;;;;17.30;2.30;;;12.30;99.90;;;;;;5090891;28;20662;-58
2022/09/27 05:17:46;;;;;;;14.20;2.30;;;12.10;99.90;;;;;;5090788;28;20176;-58
2022/09/27 05:20:12;;;;;;;20.63;3.03;;;12.30;99.90;;;;;;5090695;28;20514;-58
2022/09/27 05:22:39;;;;;;;21.03;2.50;;;12.20;99.90;;;;;;5090770;28;20171;-58
2022/09/27 05:25:05;;;;;;;18.83;2.87;;;12.20;99.90;;;;;;5090654;28;20662;-59
2022/09/27 05:27:30;;;;;;;19.53;2.67;;;12.20;99.90;;;;;;5090545;28;20168;-58
2022/09/27 05:29:59;;;;;;;19.27;2.43;;;;;;;;;;5090745;28;20520;-58
2022/09/27 05:32:24;;;;;;;16.13;2.10;;;12.20;99.90;;;;;;5090690;28;20164;-58
2022/09/27 05:34:52;;;;;;;22.13;2.70;;;12.30;99.90;;;;;;5090743;28;20205;-58
2022/09/27 05:37:18;;;;;;;11.77;2.10;;;12.20;99.90;;;;;;5090704;28;20255;-58
2022/09/27 05:39:45;;;;;;;14.33;2.87;;;12.20;99.90;;;;;;5090329;28;20310;-58
2022/09/27 05:42:11;;;;;;;17.23;2.30;;;12.30;99.90;;;;;;5090620;28;20662;-58
2022/09/27 05:44:38;;;;;;;17.00;2.60;;;12.30;99.90;;;;;;5090715;28;20195;-59
2022/09/27 05:47:04;;;;;;;17.30;2.53;;;12.30;99.90;;;;;;5090572;28;20175;-58
2022/09/27 05:49:33;;;;;;;17.87;2.80;;;12.40;99.90;;;;;;5093579;28;20168;-58
2022/09/27 05:51:59;;;;;;;17.10;2.57;;;12.30;99.90;;;;;;5094413;28;20529;-58
2022/09/27 05:54:26;;;;;;;12.60;2.17;;;;;;;;;;5094283;28;20258;-58
2022/09/27 05:56:57;;;;;;;17.67;2.40;;;12.30;99.90;;;;;;5094301;28;20172;-58
2022/09/27 05:59:23;;;;;;;12.67;2.63;;;;;;;;;;5094234;28;20243;-58
2022/09/27 06:01:50;;;;;;;21.00;3.10;;;12.30;99.90;;;;;;5094249;28;20251;-58
2022/09/27 06:04:16;;;;;;;14.97;2.40;;;12.30;99.90;;;;;;5094194;28;20226;-58
2022/09/27 06:06:43;;;;;;;26.13;3.33;;;12.40;99.90;;;;;;5094240;28;20175;-58
2022/09/27 06:09:13;;;;;;;17.97;2.37;;;12.60;99.90;;;;;;5094283;28;20224;-58
2022/09/27 06:11:39;;;;;;;22.20;3.00;;;12.00;99.90;;;;;;5094341;28;20172;-58
2022/09/27 06:14:05;;;;;;;20.77;2.40;;;12.20;99.90;;;;;;5094035;28;20650;-59
2022/09/27 06:16:31;;;;;;;21.10;2.60;;;12.00;99.90;;;;;;5092926;28;20229;-58
2022/09/27 06:18:56;;;;;;;23.83;3.60;;;11.80;99.90;;;;;;5093915;28;20207;-58
2022/09/27 06:21:23;;;;;;;17.13;2.60;;;;;;;;;;5093993;28;20179;-58
2022/09/27 06:23:49;;;;;;;12.40;2.23;;;;;;;;;;5094161;28;20287;-58
2022/09/27 06:26:16;;;;;;;18.53;2.70;;;11.40;99.90;;;;;;5093825;28;20643;-58
2022/09/27 06:28:41;;;;;;;14.83;2.20;;;11.50;99.90;;;;;;5093838;28;20249;-58
2022/09/27 06:31:07;;;;;;;23.87;3.30;;;11.50;99.90;;;;;;5093836;28;20642;-58
2022/09/27 06:33:34;;;;;;;18.63;2.70;;;11.50;99.90;;;;;;5093578;28;20167;-58
2022/09/27 06:36:06;;;;;;;16.40;2.60;;;11.50;99.90;;;;;;5093533;28;20250;-58
2022/09/27 06:38:33;;;;;;;24.33;3.07;;;11.40;99.90;;;;;;5093473;28;20302;-58
2022/09/27 06:41:02;;;;;;;29.60;3.17;;;11.50;99.90;;;;;;5109312;28;20561;-58
2022/09/27 06:43:30;;;;;;;20.70;3.20;;;11.50;99.90;;;;;;5093569;28;20172;-58
2022/09/27 06:46:04;;;;;;;28.80;3.53;;;11.50;99.90;;;;;;5093476;28;20196;-58
2022/09/27 06:48:36;;;;;;;21.97;3.13;;;11.70;99.90;;;;;;5092271;28;20699;-58
2022/09/27 06:51:02;;;;;;;28.00;3.20;;;11.60;99.90;;;;;;5093604;28;20176;-58
2022/09/27 06:53:28;;;;;;;14.27;3.03;;;11.60;99.90;;;;;;5093378;28;20579;-58
2022/09/27 06:55:58;;;;;;;18.63;3.17;;;11.70;99.90;;;;;;5093346;28;20187;-58
2022/09/27 07:01:19;;;;;;;20.90;3.70;;;11.80;99.90;;;;;;5090273;28;20179;-58
2022/09/27 07:03:49;;;;;;;24.60;3.43;;;11.90;99.90;;;;;;5093078;28;20571;-58
2022/09/27 07:06:21;;;;;;;23.20;3.07;;;11.90;99.90;;;;;;5093083;28;20267;-58
2022/09/27 07:08:52;;;;;;;26.93;3.10;;;11.90;99.90;;;;;;5093129;28;20258;-58
2022/09/27 07:11:17;;;;;;;23.90;3.73;;;11.80;99.90;;;;;;5089997;28;20255;-58
2022/09/27 07:13:43;;;;;;;25.13;2.73;;;11.80;99.90;;;;;;5074018;28;20284;-58
2022/09/27 07:16:13;;;;;;;22.90;3.80;;;11.90;99.90;;;;;;5072827;28;20219;-59
2022/09/27 07:18:40;;;;;;;27.47;4.20;;;11.90;99.90;;;;;;5072730;28;20172;-58
2022/09/27 07:21:07;;;;;;;29.07;4.03;;;11.90;99.90;;;;;;5071281;28;20172;-58
2022/09/27 07:23:33;;;;;;;25.83;3.70;;;12.00;99.90;;;;;;5072505;28;20168;-58
2022/09/27 07:26:03;;;;;;;27.93;3.07;;;12.00;99.90;;;;;;5072397;28;20268;-58
2022/09/27 07:28:30;;;;;;;31.87;3.63;;;12.10;99.90;;;;;;5072317;28;20172;-60
2022/09/27 07:30:56;;;;;;;32.87;3.93;;;12.20;99.90;;;;;;5072319;28;20209;-56
2022/09/27 07:33:22;;;;;;;22.20;3.50;;;12.30;99.90;;;;;;5072206;28;20263;-56
2022/09/27 07:35:48;;;;;;;27.47;4.07;;;12.30;99.90;;;;;;5070917;28;20254;-57
2022/09/27 07:38:14;;;;;;;21.80;2.20;;;12.40;99.90;;;;;;5072011;28;20263;-58
2022/09/27 07:40:40;;;;;;;19.50;2.70;;;12.40;99.90;;;;;;5072083;28;20207;-58
2022/09/27 07:43:08;;;;;;;16.80;3.17;;;12.50;99.90;;;;;;5072322;28;20271;-58
2022/09/27 07:45:34;;;;;;;16.83;3.07;;;;;;;;;;5075172;28;20665;-58
2022/09/27 07:48:02;;;;;;;21.17;3.23;;;12.70;99.90;;;;;;5085458;28;20304;-58
2022/09/27 07:50:29;;;;;;;20.50;3.27;;;12.70;99.90;;;;;;5092186;28;20164;-58
2022/09/27 07:52:55;;;;;;;22.37;3.33;;;12.80;99.90;;;;;;5091996;28;20184;-58
2022/09/27 07:55:22;;;;;;;13.70;2.77;;;12.80;99.90;;;;;;5092284;28;20156;-58
2022/09/27 07:57:48;;;;;;;16.80;2.40;;;12.80;99.90;;;;;;5092294;28;20172;-58
2022/09/27 08:00:17;;;;;;;17.03;3.10;;;12.90;99.90;;;;;;5092035;28;20692;-58
2022/09/27 08:02:44;;;;;;;22.00;3.40;;;12.90;99.90;;;;;;5092513;28;20271;-58
2022/09/27 08:05:11;;;;;;;24.73;4.20;;;13.00;99.90;;;;;;5091957;28;20172;-58
2022/09/27 08:07:38;;;;;;;28.00;3.63;;;13.00;99.90;;;;;;5091975;28;20199;-58
2022/09/27 08:10:05;;;;;;;23.10;4.37;;;13.30;99.90;;;;;;5107770;28;20182;-58
2022/09/27 08:12:31;;;;;;;27.83;4.27;;;13.40;99.90;;;;;;5091818;28;20182;-59
2022/09/27 08:15:00;;;;;;;36.63;5.37;;;13.60;99.90;;;;;;5091882;28;20168;-58
2022/09/27 08:17:26;;;;;;;34.53;5.20;;;13.70;99.90;;;;;;5091649;28;20651;-58
2022/09/27 08:19:52;;;;;;;28.07;4.80;;;13.60;99.90;;;;;;5091671;28;20212;-58
2022/09/27 08:22:20;;;;;;;39.83;5.17;;;13.70;99.90;;;;;;5091499;28;20172;-58
2022/09/27 08:24:46;;;;;;;31.92;4.40;;;14.50;99.90;;;;;;5091416;28;20180;-59
2022/09/27 08:27:12;;;;;;;27.00;3.90;;;15.80;99.90;;;;;;5091566;28;20630;-58
2022/09/27 08:29:40;;;;;;;37.67;5.60;;;15.20;99.90;;;;;;5091480;28;20179;-58
2022/09/27 08:32:07;;;;;;;29.25;4.18;;;15.00;99.90;;;;;;5091791;28;20202;-58
2022/09/27 08:34:32;;;;;;;29.75;4.55;;;14.70;99.90;;;;;;5091564;28;20273;-58
2022/09/27 08:36:58;;;;;;;35.83;4.82;;;14.80;99.90;;;;;;5091480;28;20581;-58
2022/09/27 08:39:24;;;;;;;39.92;5.05;;;15.40;99.90;;;;;;5091258;28;20304;-58
2022/09/27 08:42:01;;;;;;;31.85;4.85;;;15.80;99.90;;;;;;5091278;28;20203;-56
2022/09/27 08:44:53;;;;;;;35.35;5.07;;;15.50;99.90;;;;;;5091222;28;20175;-56
2022/09/27 08:47:34;;;;;;;26.48;4.63;;;15.30;99.90;;;;;;5091253;28;20202;-57
2022/09/27 08:50:18;;;;;;;33.75;5.10;;;15.00;99.90;;;;;;5107144;28;20168;-57
2022/09/27 08:52:53;;;;;;;31.05;4.38;;;15.00;99.90;;;;;;5091151;28;20259;-57
2022/09/27 08:55:36;;;;;;;31.95;4.97;;;15.10;99.90;;;;;;5091183;28;20292;-57
2022/09/27 08:58:42;;;;;;;35.53;4.47;;;15.50;99.90;;;;;;5091180;28;20176;-57
2022/09/27 09:01:15;;;;;;;28.92;4.88;;;16.00;99.90;;;;;;5090878;28;20202;-57
2022/09/27 09:03:54;;;;;;;34.13;4.45;;;16.40;99.90;;;;;;5091109;28;20297;-57
2022/09/27 09:06:33;;;;;;;32.05;4.97;;;16.40;99.90;;;;;;5091062;28;20665;-57
2022/09/27 09:09:28;;;;;;;24.85;4.57;;;16.30;99.90;;;;;;5091081;28;20167;-57
2022/09/27 09:12:46;;;;;;;26.00;4.05;;;16.30;99.90;;;;;;5106614;28;20725;-56
2022/09/27 09:15:30;;;;;;;30.25;4.07;;;16.40;99.90;;;;;;5090992;28;20540;-57
2022/09/27 09:18:05;;;;;;;25.70;3.83;;;16.30;99.90;;;;;;5091015;28;20524;-57
2022/09/27 09:21:14;;;;;;;27.05;4.00;;;15.90;99.90;;;;;;5090910;28;20199;-57
2022/09/27 09:23:46;;;;;;;24.65;3.97;;;15.50;99.90;;;;;;5070452;28;20290;-57
2022/09/27 09:26:37;;;;;;;24.15;3.80;;;15.60;99.90;;;;;;5095055;28;20171;-57
2022/09/27 09:29:26;;;;;;;22.45;3.20;;;15.70;99.90;;;;;;5094952;28;20180;-57
2022/09/27 09:31:52;;;;;;;26.90;3.92;;;15.90;99.90;;;;;;5094859;28;20172;-57
2022/09/27 09:34:32;;;;;;;22.08;3.70;;;16.60;99.90;;;;;;5110576;28;20167;-57
2022/09/27 09:36:58;;;;;;;29.48;4.63;;;16.00;99.90;;;;;;5094745;28;20259;-57
2022/09/27 09:39:27;;;;;;;33.20;3.95;;;16.10;99.90;;;;;;5094381;28;20744;-57
2022/09/27 09:42:05;;;;;;;28.88;4.35;;;16.20;99.90;;;;;;5094613;28;20634;-58
2022/09/27 09:44:53;;;;;;;18.95;3.90;;;16.60;99.90;;;;;;5094968;28;20203;-58
2022/09/27 09:47:35;;;;;;;19.00;3.03;;;17.50;99.90;;;;;;5094664;28;20171;-56
2022/09/27 09:50:12;;;;;;;18.40;3.70;;;18.60;99.90;;;;;;5088875;28;20245;-56
2022/09/27 09:52:53;;;;;;;23.30;4.35;;;17.70;99.90;;;;;;5079029;28;20180;-57
2022/09/27 09:55:23;;;;;;;21.10;3.67;;;17.90;99.90;;;;;;5090517;28;20233;-57
2022/09/27 09:57:53;;;;;;;28.27;4.75;;;18.00;99.90;;;;;;5094353;28;20180;-57
2022/09/27 10:00:19;;;;;;;21.48;4.05;;;17.80;99.90;;;;;;5094304;28;20293;-56
2022/09/27 10:02:46;;;;;;;21.08;4.15;;;17.60;99.90;;;;;;5097439;28;20542;-57
2022/09/27 10:05:18;;;;;;;17.60;3.50;;;17.30;99.90;;;;;;5085560;28;20188;-57
2022/09/27 10:07:45;;;;;;;29.67;4.05;;;16.90;99.90;;;;;;5076005;28;20635;-57
2022/09/27 10:10:15;;;;;;;26.88;3.83;;;16.40;99.90;;;;;;5073917;28;20251;-57
2022/09/27 10:12:42;;;;;;;27.50;3.92;;;16.20;99.90;;;;;;5073908;28;20177;-57
2022/09/27 10:15:18;;;;;;;21.90;3.90;;;15.80;99.90;;;;;;5073964;28;20168;-58
2022/09/27 10:17:49;;;;;;;19.38;3.60;;;15.60;99.90;;;;;;5073903;28;20206;-58
2022/09/27 10:20:38;;;;;;;23.08;3.08;;;15.20;99.90;;;;;;5073758;28;20212;-58
2022/09/27 10:23:14;;;;;;;26.73;3.90;;;15.10;99.90;;;;;;5073866;28;20161;-58
2022/09/27 10:25:51;;;;;;;17.52;3.05;;;15.00;99.90;;;;;;5073849;28;20164;-57
2022/09/27 10:28:32;;;;;;;23.35;3.05;;;15.10;99.90;;;;;;5072320;28;20640;-57
2022/09/27 10:31:10;;;;;;;17.90;3.05;;;15.10;99.90;;;;;;5073711;28;20215;-58
2022/09/27 10:33:53;;;;;;;20.98;3.22;;;15.30;99.90;;;;;;5073595;28;20561;-58
2022/09/27 10:36:26;;;;;;;28.40;3.78;;;15.50;99.90;;;;;;5072567;28;20168;-58
2022/09/27 10:38:54;;;;;;;21.65;3.17;;;15.30;99.90;;;;;;5073295;28;20674;-58
2022/09/27 10:41:30;;;;;;;24.85;3.33;;;15.20;99.90;;;;;;5073569;28;20188;-58
2022/09/27 10:43:56;;;;;;;20.65;3.78;;;15.30;99.90;;;;;;5073422;28;20225;-58
2022/09/27 10:46:30;;;;;;;17.73;3.55;;;15.30;99.90;;;;;;5073238;28;20173;-58
2022/09/27 10:49:20;;;;;;;20.38;2.83;;;15.30;99.90;;;;;;5073445;28;20557;-58
2022/09/27 10:51:52;;;;;;;27.90;3.63;;;15.00;99.90;;;;;;5073213;28;20666;-58
2022/09/27 10:54:26;;;;;;;30.77;4.07;;;15.00;99.90;;;;;;5073611;28;20302;-58
2022/09/27 10:57:04;;;;;;;18.63;3.28;;;15.10;99.90;;;;;;5073152;28;20168;-58
2022/09/27 10:59:38;;;;;;;22.13;3.08;;;15.00;99.90;;;;;;5073128;28;20675;-58
2022/09/27 11:02:04;;;;;;;24.52;3.85;;;15.00;99.90;;;;;;5073099;28;20177;-59
2022/09/27 11:04:30;;;;;;;23.42;3.50;;;15.00;99.90;;;;;;5073013;28;20161;-58
2022/09/27 11:07:13;;;;;;;23.52;3.55;;;15.10;99.90;;;;;;5072907;28;20588;-58
2022/09/27 11:09:54;;;;;;;16.13;2.85;;;14.80;99.90;;;;;;5073201;28;20164;-58
2022/09/27 11:12:21;;;;;;;28.00;3.78;;;14.50;99.90;;;;;;5072950;28;20520;-58
2022/09/27 11:14:55;;;;;;;25.73;3.88;;;14.60;99.90;;;;;;5072674;28;20165;-58
2022/09/27 11:17:34;;;;;;;29.27;4.65;;;15.00;99.90;;;;;;5072694;28;20168;-58
2022/09/27 11:20:48;;;;;;;22.92;3.60;;;14.90;99.90;;;;;;5072676;28;20215;-58
2022/09/27 11:23:45;;;;;;;20.98;3.80;;;15.40;99.90;;;;;;5066472;28;20213;-58
2022/09/27 11:26:16;;;;;;;25.38;3.53;;;15.60;99.90;;;;;;5088038;28;20165;-58
2022/09/27 11:29:12;;;;;;;22.58;3.53;;;16.00;99.90;;;;;;5072575;28;20631;-58
2022/09/27 11:32:34;;;;;;;20.92;3.22;;;16.30;99.90;;;;;;5072531;28;20306;-58
2022/09/27 11:35:21;;;;;;;26.45;4.22;;;16.30;99.90;;;;;;5070217;28;20177;-58
2022/09/27 11:37:59;;;;;;;24.40;4.28;;;16.20;99.90;;;;;;5069986;28;20272;-58
2022/09/27 11:40:54;;;;;;;22.73;3.65;;;16.40;99.90;;;;;;5071779;28;20690;-56
2022/09/27 11:43:28;;;;;;;24.30;3.03;;;16.90;99.90;;;;;;5069995;28;20215;-56
2022/09/27 11:46:29;;;;;;;23.00;3.80;;;17.80;99.90;;;;;;5071525;28;20270;-57
2022/09/27 11:49:07;;;;;;;16.77;3.13;;;18.50;99.90;;;;;;5072071;28;20634;-57
2022/09/27 11:51:38;;;;;;;18.42;3.35;;;18.50;99.90;;;;;;5071988;28;20169;-57
2022/09/27 11:54:41;;;;;;;19.85;3.30;;;17.70;99.90;;;;;;5071972;28;20665;-57
2022/09/27 11:57:32;;;;;;;20.55;3.67;;;17.40;99.90;;;;;;5069352;28;20196;-56
2022/09/27 12:00:08;;;;;;;25.08;3.53;;;17.10;99.90;;;;;;5091908;28;20765;-56
2022/09/27 12:02:37;;;;;;;22.08;3.97;;;16.70;99.90;;;;;;5091922;28;20175;-57
2022/09/27 12:05:23;;;;;;;14.52;3.85;;;16.60;99.90;;;;;;5091753;28;20317;-57
2022/09/27 12:07:58;;;;;;;28.13;3.80;;;16.60;99.90;;;;;;5091907;28;20232;-57
2022/09/27 12:10:24;;;;;;;23.27;3.25;;;;;;;;;;5091822;28;20254;-57
2022/09/27 12:12:52;;;;;;;15.85;3.08;;;16.40;99.90;;;;;;5092091;28;20262;-56
2022/09/27 12:15:29;;;;;;;20.25;3.38;;;16.20;99.90;;;;;;5091614;28;20171;-57
2022/09/27 12:18:25;;;;;;;15.52;3.05;;;16.00;99.90;;;;;;5092019;28;20324;-57
2022/09/27 12:20:52;;;;;;;22.73;3.38;;;16.10;99.90;;;;;;5091611;28;20207;-57
2022/09/27 12:23:39;;;;;;;19.05;3.20;;;16.30;99.90;;;;;;5091583;28;20272;-57
2022/09/27 12:26:42;;;;;;;18.13;3.13;;;16.50;99.90;;;;;;5091503;28;20213;-58
2022/09/27 12:29:41;;;;;;;16.50;2.70;;;17.00;99.90;;;;;;5091374;28;20168;-58
2022/09/27 12:32:14;;;;;;;21.90;3.42;;;17.70;99.90;;;;;;5079097;28;20202;-58
2022/09/27 12:35:12;;;;;;;16.52;2.58;;;18.30;99.90;;;;;;5091381;28;20191;-58
2022/09/27 12:37:44;;;;;;;17.88;3.60;;;18.60;99.90;;;;;;5091122;28;20168;-58
2022/09/27 12:40:24;;;;;;;11.88;3.00;;;20.10;99.90;;;;;;5091250;28;20269;-58
2022/09/27 12:43:12;;;;;;;17.90;3.28;;;21.90;99.90;;;;;;5091496;28;20172;-58
2022/09/27 12:45:55;;;;;;;14.27;3.10;;;20.70;99.90;;;;;;5091197;28;20179;-58
2022/09/27 12:48:38;;;;;;;15.20;3.20;;;19.70;99.90;;;;;;5091195;28;20188;-58
2022/09/27 12:51:12;;;;;;;16.65;2.95;;;18.60;99.90;;;;;;5106812;28;20208;-58
2022/09/27 12:53:53;;;;;;;18.63;3.20;;;18.10;99.90;;;;;;5091074;28;20626;-58
2022/09/27 12:56:33;;;;;;;18.98;3.60;;;18.20;99.90;;;;;;5091338;28;20176;-58
2022/09/27 12:59:11;;;;;;;14.60;3.15;;;18.30;99.90;;;;;;5090507;28;20168;-58
2022/09/27 13:02:13;;;;;;;18.35;3.42;;;17.80;99.90;;;;;;5091326;28;20203;-58
2022/09/27 13:05:00;;;;;;;18.80;2.85;;;17.60;99.90;;;;;;5091171;28;20661;-58
2022/09/27 13:07:51;;;;;;;26.38;3.70;;;17.50;99.90;;;;;;5106731;28;20175;-56
2022/09/27 13:10:28;;;;;;;22.58;4.38;;;17.60;99.90;;;;;;5091055;28;20167;-56
2022/09/27 13:12:55;;;;;;;23.55;3.30;;;17.10;99.90;;;;;;5090886;28;20656;-57
2022/09/27 13:15:38;;;;;;;16.65;3.00;;;17.00;99.90;;;;;;5090931;28;20167;-57